createdAt,value
2019-01-30T00:01:33.832Z,14.20
2019-01-30T00:04:01.038Z,14.70
2019-01-30T00:06:28.260Z,19.63
2019-01-30T00:08:55.524Z,13.67
2019-01-30T00:11:22.752Z,14.77
2019-01-30T00:13:49.950Z,13.10
2019-01-30T00:16:17.207Z,14.23
2019-01-30T00:18:44.416Z,15.43
2019-01-30T00:21:11.677Z,13.73
2019-01-30T00:23:38.882Z,16.50
2019-01-30T00:26:06.335Z,17.27
2019-01-30T00:28:33.600Z,18.57
2019-01-30T00:31:00.812Z,16.57
2019-01-30T00:33:28.271Z,14.00
2019-01-30T00:35:55.561Z,14.17
2019-01-30T00:38:22.866Z,17.40
2019-01-30T00:40:50.116Z,16.00
2019-01-30T00:43:17.360Z,12.17
2019-01-30T00:45:44.591Z,15.37
2019-01-30T00:48:11.814Z,15.97
2019-01-30T00:50:39.076Z,20.80
2019-01-30T00:53:06.299Z,17.27
2019-01-30T00:55:33.571Z,13.03
2019-01-30T00:58:00.845Z,13.87
2019-01-30T01:00:28.511Z,13.90
2019-01-30T01:02:55.839Z,13.13
2019-01-30T01:05:23.083Z,20.00
2019-01-30T01:07:50.512Z,14.93
2019-01-30T01:10:18.072Z,16.50
2019-01-30T01:12:45.524Z,14.77
2019-01-30T01:15:13.537Z,15.13
2019-01-30T01:17:40.737Z,16.33
2019-01-30T01:20:10.107Z,16.37
2019-01-30T01:22:37.463Z,17.20
2019-01-30T01:25:06.503Z,16.00
2019-01-30T01:27:33.758Z,13.20
2019-01-30T01:30:01.159Z,17.40
2019-01-30T01:32:28.439Z,14.50
2019-01-30T01:34:56.834Z,16.47
2019-01-30T01:37:24.135Z,16.17
2019-01-30T01:39:51.374Z,17.17
2019-01-30T01:42:18.687Z,12.87
2019-01-30T01:44:45.943Z,15.13
2019-01-30T01:47:13.263Z,14.23
2019-01-30T01:49:40.514Z,13.60
2019-01-30T01:52:07.752Z,14.17
2019-01-30T01:54:35.006Z,16.13
2019-01-30T01:57:02.260Z,14.90
2019-01-30T01:59:29.470Z,16.60
2019-01-30T02:01:56.694Z,17.03
2019-01-30T02:04:23.937Z,16.63
2019-01-30T02:06:51.141Z,15.23
2019-01-30T02:09:18.353Z,15.33
2019-01-30T02:11:45.611Z,15.13
2019-01-30T02:14:12.826Z,17.00
2019-01-30T02:16:40.047Z,14.63
2019-01-30T02:19:07.292Z,12.43
2019-01-30T02:21:34.524Z,13.43
2019-01-30T02:24:01.861Z,14.47
2019-01-30T02:26:29.102Z,12.17
2019-01-30T02:28:56.311Z,15.33
2019-01-30T02:31:23.579Z,12.20
2019-01-30T02:33:50.833Z,11.70
2019-01-30T02:36:18.059Z,15.47
2019-01-30T02:38:45.276Z,14.10
2019-01-30T02:41:12.523Z,12.83
2019-01-30T02:43:39.748Z,12.33
2019-01-30T02:46:07.140Z,11.30
2019-01-30T02:48:34.366Z,12.37
2019-01-30T02:51:01.604Z,12.07
2019-01-30T02:53:28.857Z,13.63
2019-01-30T02:55:56.070Z,12.70
2019-01-30T02:58:23.297Z,11.20
2019-01-30T03:00:58.798Z,10.33
2019-01-30T03:03:19.752Z,12.33
2019-01-30T03:05:46.953Z,10.03
2019-01-30T03:08:14.191Z,12.53
2019-01-30T03:10:41.412Z,11.10
2019-01-30T03:13:08.607Z,10.10
2019-01-30T03:15:35.869Z,12.43
2019-01-30T03:18:03.177Z,14.47
2019-01-30T03:20:30.438Z,11.17
2019-01-30T03:22:57.668Z,10.93
2019-01-30T03:25:25.008Z,13.87
2019-01-30T03:27:52.434Z,12.37
2019-01-30T03:30:27.730Z,10.23
2019-01-30T03:32:54.987Z,12.50
2019-01-30T03:35:22.375Z,13.37
2019-01-30T03:37:49.631Z,11.23
2019-01-30T03:40:17.598Z,12.43
2019-01-30T03:42:44.828Z,11.77
2019-01-30T03:45:12.897Z,14.20
2019-01-30T03:47:40.100Z,12.30
2019-01-30T03:50:08.495Z,14.00
2019-01-30T03:52:35.816Z,10.40
2019-01-30T03:55:03.228Z,15.13
2019-01-30T03:57:30.480Z,15.43
2019-01-30T03:59:57.696Z,12.97
2019-01-30T04:02:24.879Z,13.87
2019-01-30T04:04:52.136Z,13.30
2019-01-30T04:07:19.343Z,12.10
2019-01-30T04:09:46.531Z,14.67
2019-01-30T04:12:13.789Z,13.60
2019-01-30T04:14:41.056Z,15.50
2019-01-30T04:17:08.273Z,14.53
2019-01-30T04:19:35.497Z,14.00
2019-01-30T04:22:02.773Z,17.60
2019-01-30T04:24:29.973Z,13.23
2019-01-30T04:26:57.179Z,14.40
2019-01-30T04:29:24.453Z,13.17
2019-01-30T04:31:51.673Z,13.43
2019-01-30T04:34:18.964Z,12.87
2019-01-30T04:36:46.203Z,13.17
2019-01-30T04:39:13.488Z,13.60
2019-01-30T04:41:40.749Z,14.10
2019-01-30T04:44:07.944Z,12.80
2019-01-30T04:46:35.170Z,13.03
2019-01-30T04:49:02.417Z,13.93
2019-01-30T04:51:29.617Z,16.17
2019-01-30T04:53:56.824Z,15.27
2019-01-30T04:56:24.066Z,17.00
2019-01-30T04:58:51.273Z,15.63
2019-01-30T05:01:18.495Z,16.07
2019-01-30T05:03:45.760Z,12.73
2019-01-30T05:06:12.963Z,13.33
2019-01-30T05:08:40.210Z,14.97
2019-01-30T05:11:07.471Z,16.60
2019-01-30T05:13:34.701Z,20.10
2019-01-30T05:16:01.916Z,17.00
2019-01-30T05:18:29.156Z,16.57
2019-01-30T05:20:56.364Z,17.47
2019-01-30T05:23:23.580Z,19.60
2019-01-30T05:25:50.846Z,17.60
2019-01-30T05:28:18.064Z,18.07
2019-01-30T05:30:45.295Z,17.70
2019-01-30T05:33:12.537Z,17.00
2019-01-30T05:35:43.179Z,18.47
2019-01-30T05:38:11.244Z,21.23
2019-01-30T05:40:38.494Z,18.50
2019-01-30T05:43:05.699Z,19.63
2019-01-30T05:45:32.905Z,20.30
2019-01-30T05:48:00.167Z,18.40
2019-01-30T05:50:27.389Z,17.90
2019-01-30T05:52:54.618Z,19.87
2019-01-30T05:55:21.981Z,18.20
2019-01-30T05:57:49.218Z,18.77
2019-01-30T06:00:26.505Z,18.63
2019-01-30T06:02:53.718Z,17.43
2019-01-30T06:05:20.944Z,20.27
2019-01-30T06:07:48.308Z,19.73
2019-01-30T06:10:15.564Z,19.17
2019-01-30T06:12:42.787Z,16.17
2019-01-30T06:15:11.237Z,16.17
2019-01-30T06:17:38.475Z,19.00
2019-01-30T06:20:08.212Z,20.30
2019-01-30T06:22:35.479Z,20.07
2019-01-30T06:25:02.809Z,19.33
2019-01-30T06:27:30.021Z,22.13
2019-01-30T06:29:57.310Z,19.27
2019-01-30T06:32:24.530Z,22.67
2019-01-30T06:34:51.901Z,23.93
2019-01-30T06:37:19.171Z,20.40
2019-01-30T06:39:46.388Z,19.57
2019-01-30T06:42:13.632Z,21.10
2019-01-30T06:44:40.924Z,22.80
2019-01-30T06:47:08.135Z,21.70
2019-01-30T06:49:35.343Z,21.40
2019-01-30T06:52:02.636Z,18.90
2019-01-30T06:54:29.858Z,21.53
2019-01-30T06:56:57.079Z,22.67
2019-01-30T06:59:24.390Z,19.40
2019-01-30T07:01:51.607Z,21.97
2019-01-30T07:04:18.813Z,21.00
2019-01-30T07:06:46.165Z,20.73
2019-01-30T07:09:13.476Z,21.30
2019-01-30T07:11:40.714Z,21.07
2019-01-30T07:14:07.975Z,22.07
2019-01-30T07:16:35.240Z,20.67
2019-01-30T07:19:02.440Z,20.93
2019-01-30T07:21:29.698Z,19.70
2019-01-30T07:23:56.907Z,23.13
2019-01-30T07:26:24.149Z,22.67
2019-01-30T07:28:51.416Z,18.67
2019-01-30T07:31:19.305Z,19.50
2019-01-30T07:33:46.636Z,19.20
2019-01-30T07:36:13.920Z,21.30
2019-01-30T07:38:41.184Z,20.83
2019-01-30T07:41:08.393Z,18.80
2019-01-30T07:43:35.625Z,22.23
2019-01-30T07:46:03.097Z,21.17
2019-01-30T07:48:30.401Z,17.47
2019-01-30T07:50:57.632Z,18.47
2019-01-30T07:53:24.926Z,19.10
2019-01-30T07:55:52.143Z,21.30
2019-01-30T07:58:19.398Z,21.60
2019-01-30T08:00:46.646Z,18.37
2019-01-30T08:03:13.970Z,24.60
2019-01-30T08:05:41.255Z,18.57
2019-01-30T08:08:08.475Z,18.87
2019-01-30T08:10:35.706Z,22.13
2019-01-30T08:13:03.674Z,22.00
2019-01-30T08:15:30.892Z,19.57
2019-01-30T08:17:58.116Z,18.10
2019-01-30T08:20:25.400Z,19.50
2019-01-30T08:22:52.653Z,16.97
2019-01-30T08:25:21.887Z,19.00
2019-01-30T08:27:49.632Z,15.50
2019-01-30T08:30:23.499Z,14.10
2019-01-30T08:32:51.400Z,15.50
2019-01-30T08:35:19.525Z,16.83
2019-01-30T08:37:46.784Z,16.53
2019-01-30T08:40:14.199Z,15.50
2019-01-30T08:42:41.486Z,14.80
2019-01-30T08:45:20.707Z,15.80
2019-01-30T08:47:47.979Z,15.37
2019-01-30T08:50:15.338Z,15.63
2019-01-30T08:52:42.867Z,14.83
2019-01-30T08:55:10.364Z,13.93
2019-01-30T08:57:37.708Z,12.67
2019-01-30T09:00:07.513Z,15.03
2019-01-30T09:02:34.792Z,15.50
2019-01-30T09:05:02.013Z,17.43
2019-01-30T09:07:29.243Z,12.93
2019-01-30T09:09:56.518Z,15.73
2019-01-30T09:12:23.713Z,12.73
2019-01-30T09:14:50.936Z,15.40
2019-01-30T09:17:18.220Z,14.87
2019-01-30T09:19:45.460Z,16.07
2019-01-30T09:22:12.701Z,15.50
2019-01-30T09:24:39.974Z,15.03
2019-01-30T09:27:07.201Z,15.47
2019-01-30T09:29:34.405Z,15.07
2019-01-30T09:32:01.711Z,12.30
2019-01-30T09:34:28.906Z,15.67
2019-01-30T09:36:56.244Z,12.90
2019-01-30T09:39:23.473Z,15.50
2019-01-30T09:41:50.706Z,12.23
2019-01-30T09:44:17.935Z,13.53
2019-01-30T09:46:45.200Z,14.03
2019-01-30T09:49:12.464Z,13.90
2019-01-30T09:51:39.654Z,14.17
2019-01-30T09:54:07.066Z,13.30
2019-01-30T09:56:34.349Z,13.37
2019-01-30T09:59:01.543Z,13.43
2019-01-30T10:01:28.794Z,13.27
2019-01-30T10:03:56.019Z,13.50
2019-01-30T10:06:23.243Z,12.17
2019-01-30T10:08:50.521Z,13.47
2019-01-30T10:11:17.746Z,14.07
2019-01-30T10:13:44.971Z,12.50
2019-01-30T10:16:12.239Z,13.10
2019-01-30T10:18:39.469Z,13.17
2019-01-30T10:21:06.786Z,12.97
2019-01-30T10:23:34.051Z,13.23
2019-01-30T10:26:01.283Z,15.47
2019-01-30T10:28:28.517Z,13.87
2019-01-30T10:30:55.790Z,14.63
2019-01-30T10:33:23.043Z,11.57
2019-01-30T10:35:50.296Z,12.73
2019-01-30T10:38:17.584Z,13.87
2019-01-30T10:40:44.876Z,12.40
2019-01-30T10:43:12.350Z,11.80
2019-01-30T10:45:39.571Z,11.57
2019-01-30T10:48:06.794Z,12.13
2019-01-30T10:50:34.156Z,13.83
2019-01-30T10:53:01.365Z,13.50
2019-01-30T10:55:30.235Z,10.73
2019-01-30T10:57:59.169Z,13.57
2019-01-30T11:00:28.907Z,12.53
2019-01-30T11:02:56.165Z,12.10
2019-01-30T11:05:24.303Z,12.33
2019-01-30T11:07:51.615Z,14.67
2019-01-30T11:10:19.193Z,12.87
2019-01-30T11:12:46.380Z,13.93
2019-01-30T11:15:15.745Z,12.53
2019-01-30T11:17:43.109Z,14.10
2019-01-30T11:20:12.034Z,14.20
2019-01-30T11:22:39.266Z,12.20
2019-01-30T11:25:09.870Z,14.63
2019-01-30T11:27:37.180Z,12.47
2019-01-30T11:30:05.585Z,11.90
2019-01-30T11:32:32.875Z,12.80
2019-01-30T11:35:00.291Z,13.47
2019-01-30T11:37:27.533Z,11.00
2019-01-30T11:39:54.746Z,11.73
2019-01-30T11:42:21.989Z,9.67
2019-01-30T11:44:49.304Z,10.60
2019-01-30T11:47:16.519Z,11.37
2019-01-30T11:49:43.718Z,10.80
2019-01-30T11:52:11.084Z,10.17
2019-01-30T11:54:39.082Z,10.27
2019-01-30T11:57:06.582Z,10.97
2019-01-30T11:59:33.801Z,15.73
2019-01-30T12:02:01.175Z,11.63
2019-01-30T12:04:28.403Z,11.03
2019-01-30T12:06:55.631Z,11.00
2019-01-30T12:09:22.929Z,8.93
2019-01-30T12:11:50.148Z,9.43
2019-01-30T12:14:17.396Z,9.40
2019-01-30T12:16:44.703Z,12.97
2019-01-30T12:19:12.013Z,11.23
2019-01-30T12:21:39.257Z,10.10
2019-01-30T12:24:06.529Z,10.97
2019-01-30T12:26:33.748Z,9.87
2019-01-30T12:29:00.960Z,10.17
2019-01-30T12:31:28.206Z,9.47
2019-01-30T12:33:55.414Z,8.70
2019-01-30T12:36:22.714Z,10.00
2019-01-30T12:38:50.370Z,10.10
2019-01-30T12:41:17.614Z,9.77
2019-01-30T12:43:45.381Z,9.97
2019-01-30T12:46:12.864Z,9.43
2019-01-30T12:48:40.083Z,14.13
2019-01-30T12:51:07.300Z,10.17
2019-01-30T12:53:34.935Z,12.13
2019-01-30T12:56:03.585Z,9.93
2019-01-30T12:58:30.854Z,11.70
2019-01-30T13:00:58.135Z,9.97
2019-01-30T13:03:25.392Z,11.23
2019-01-30T13:05:52.609Z,10.27
2019-01-30T13:08:19.871Z,11.83
2019-01-30T13:10:47.139Z,11.17
2019-01-30T13:13:14.402Z,12.20
2019-01-30T13:15:41.692Z,11.83
2019-01-30T13:18:18.152Z,15.83
2019-01-30T13:20:38.052Z,12.93
2019-01-30T13:23:05.314Z,10.30
2019-01-30T13:25:33.255Z,11.20
2019-01-30T13:28:00.515Z,13.43
2019-01-30T13:30:33.200Z,12.03
2019-01-30T13:33:00.873Z,11.53
2019-01-30T13:35:28.368Z,11.63
2019-01-30T13:37:55.671Z,12.20
2019-01-30T13:40:25.868Z,13.33
2019-01-30T13:42:53.260Z,13.13
2019-01-30T13:45:20.607Z,12.13
2019-01-30T13:47:47.914Z,11.33
2019-01-30T13:50:17.734Z,11.33
2019-01-30T13:52:44.951Z,13.20
2019-01-30T13:55:12.909Z,12.77
2019-01-30T13:57:40.280Z,11.13
2019-01-30T14:00:17.335Z,13.00
2019-01-30T14:02:44.725Z,10.40
2019-01-30T14:05:12.096Z,10.70
2019-01-30T14:07:39.470Z,10.20
2019-01-30T14:10:06.922Z,9.90
2019-01-30T14:12:34.199Z,10.53
2019-01-30T14:15:01.433Z,12.20
2019-01-30T14:17:28.711Z,12.20
2019-01-30T14:19:55.966Z,14.30
2019-01-30T14:22:23.223Z,13.97
2019-01-30T14:24:50.452Z,14.60
2019-01-30T14:27:17.715Z,15.40
2019-01-30T14:29:44.937Z,14.00
2019-01-30T14:32:14.917Z,15.67
2019-01-30T14:34:41.355Z,14.03
2019-01-30T14:37:08.796Z,14.90
2019-01-30T14:39:36.091Z,14.30
2019-01-30T14:42:03.463Z,13.70
2019-01-30T14:44:32.076Z,14.70
2019-01-30T14:46:59.411Z,15.47
2019-01-30T14:49:26.629Z,13.53
2019-01-30T14:51:53.910Z,14.07
2019-01-30T14:54:21.144Z,12.57
2019-01-30T14:56:48.413Z,13.47
2019-01-30T14:59:15.677Z,15.13
2019-01-30T15:01:42.912Z,13.33
2019-01-30T15:04:10.218Z,16.17
2019-01-30T15:06:37.480Z,13.33
2019-01-30T15:09:08.353Z,13.87
2019-01-30T15:11:35.602Z,13.43
2019-01-30T15:14:02.839Z,13.47
2019-01-30T15:16:30.088Z,15.97
2019-01-30T15:18:57.332Z,17.13
2019-01-30T15:21:24.627Z,13.87
2019-01-30T15:23:51.913Z,15.83
2019-01-30T15:26:19.177Z,13.17
2019-01-30T15:28:46.406Z,15.13
2019-01-30T15:31:13.757Z,15.30
2019-01-30T15:33:41.176Z,13.37
2019-01-30T15:36:08.465Z,13.83
2019-01-30T15:38:35.809Z,12.97
2019-01-30T15:41:03.336Z,12.90
2019-01-30T15:43:30.593Z,14.30
2019-01-30T15:45:57.831Z,14.43
2019-01-30T15:48:25.107Z,16.27
2019-01-30T15:50:52.359Z,14.70
2019-01-30T15:53:21.457Z,17.10
2019-01-30T15:55:48.895Z,17.20
2019-01-30T15:58:16.169Z,14.27
2019-01-30T16:01:14.743Z,16.53
2019-01-30T16:03:41.968Z,16.47
2019-01-30T16:06:09.248Z,16.43
2019-01-30T16:08:36.566Z,16.33
2019-01-30T16:11:03.942Z,17.03
2019-01-30T16:13:31.186Z,17.97
2019-01-30T16:16:00.839Z,17.70
2019-01-30T16:18:28.294Z,14.70
2019-01-30T16:20:55.513Z,16.13
2019-01-30T16:23:22.907Z,14.63
2019-01-30T16:25:50.130Z,16.60
2019-01-30T16:28:17.352Z,18.63
2019-01-30T16:30:44.621Z,17.33
2019-01-30T16:33:11.873Z,17.10
2019-01-30T16:35:39.125Z,18.37
2019-01-30T16:38:06.695Z,17.20
2019-01-30T16:40:34.005Z,19.00
2019-01-30T16:43:01.244Z,16.83
2019-01-30T16:45:28.540Z,19.53
2019-01-30T16:47:55.749Z,19.23
2019-01-30T16:50:23.136Z,15.50
2019-01-30T16:52:50.485Z,15.23
2019-01-30T16:55:17.899Z,18.17
2019-01-30T16:57:45.309Z,16.43
2019-01-30T17:00:16.502Z,15.67
2019-01-30T17:02:43.730Z,12.97
2019-01-30T17:05:12.501Z,13.57
2019-01-30T17:07:39.870Z,18.23
2019-01-30T17:10:08.431Z,15.60
2019-01-30T17:12:35.645Z,16.40
2019-01-30T17:15:03.931Z,14.23
2019-01-30T17:17:31.138Z,13.40
2019-01-30T17:19:58.381Z,15.43
2019-01-30T17:22:25.628Z,12.80
2019-01-30T17:24:52.839Z,12.13
2019-01-30T17:27:20.060Z,13.27
2019-01-30T17:29:47.319Z,16.70
2019-01-30T17:32:14.575Z,15.87
2019-01-30T17:34:41.893Z,17.67
2019-01-30T17:37:09.637Z,15.57
2019-01-30T17:39:37.064Z,14.97
2019-01-30T17:42:04.439Z,15.40
2019-01-30T17:44:31.664Z,16.40
2019-01-30T17:46:58.940Z,16.60
2019-01-30T17:49:26.166Z,15.60
2019-01-30T17:51:54.351Z,16.53
2019-01-30T17:54:21.640Z,15.33
2019-01-30T17:56:48.870Z,13.83
2019-01-30T17:59:16.106Z,16.97
2019-01-30T18:01:43.376Z,14.30
2019-01-30T18:04:10.594Z,13.07
2019-01-30T18:06:37.805Z,17.03
2019-01-30T18:09:08.092Z,14.53
2019-01-30T18:11:35.323Z,15.33
2019-01-30T18:14:02.732Z,14.80
2019-01-30T18:16:30.005Z,13.67
2019-01-30T18:18:57.223Z,15.40
2019-01-30T18:21:24.442Z,13.30
2019-01-30T18:23:51.710Z,13.03
2019-01-30T18:26:19.047Z,13.40
2019-01-30T18:28:47.965Z,16.00
2019-01-30T18:31:15.501Z,16.00
2019-01-30T18:33:42.733Z,14.17
2019-01-30T18:36:09.988Z,16.87
2019-01-30T18:38:37.268Z,16.00
2019-01-30T18:41:04.567Z,13.80
2019-01-30T18:43:34.881Z,12.73
2019-01-30T18:46:02.118Z,16.37
2019-01-30T18:48:29.351Z,13.90
2019-01-30T18:50:57.044Z,13.57
2019-01-30T18:53:24.405Z,14.53
2019-01-30T18:55:51.646Z,14.43
2019-01-30T18:58:18.877Z,13.20
2019-01-30T19:00:46.133Z,14.87
2019-01-30T19:03:17.648Z,17.63
2019-01-30T19:05:44.950Z,20.97
2019-01-30T19:08:12.680Z,17.27
2019-01-30T19:10:39.923Z,20.67
2019-01-30T19:13:07.138Z,15.97
2019-01-30T19:15:34.383Z,15.50
2019-01-30T19:18:01.652Z,17.20
2019-01-30T19:20:31.430Z,16.40
2019-01-30T19:22:58.770Z,18.23
2019-01-30T19:25:26.004Z,25.83
2019-01-30T19:27:56.055Z,21.53
2019-01-30T19:30:26.902Z,21.43
2019-01-30T19:32:54.390Z,19.13
2019-01-30T19:35:21.775Z,16.57
2019-01-30T19:37:48.995Z,16.13
2019-01-30T19:40:16.551Z,19.03
2019-01-30T19:42:43.897Z,22.23
2019-01-30T19:45:12.561Z,22.97
2019-01-30T19:47:39.775Z,20.47
2019-01-30T19:50:19.255Z,16.67
2019-01-30T19:52:46.568Z,19.50
2019-01-30T19:55:15.015Z,22.77
2019-01-30T19:57:42.381Z,23.30
2019-01-30T20:00:16.417Z,19.10
2019-01-30T20:02:43.695Z,20.80
2019-01-30T20:05:11.764Z,22.03
2019-01-30T20:07:39.294Z,20.03
2019-01-30T20:10:10.096Z,19.77
2019-01-30T20:12:37.325Z,17.70
2019-01-30T20:15:05.839Z,16.90
2019-01-30T20:17:33.115Z,18.17
2019-01-30T20:20:00.350Z,20.03
2019-01-30T20:22:27.597Z,18.20
2019-01-30T20:24:54.890Z,19.07
2019-01-30T20:27:22.111Z,16.33
2019-01-30T20:29:49.342Z,18.43
2019-01-30T20:32:16.616Z,19.13
2019-01-30T20:34:43.837Z,18.90
2019-01-30T20:37:11.046Z,17.27
2019-01-30T20:39:38.325Z,15.80
2019-01-30T20:42:05.680Z,16.70
2019-01-30T20:44:32.920Z,14.90
2019-01-30T20:47:00.215Z,16.20
2019-01-30T20:49:27.424Z,17.63
2019-01-30T20:51:54.673Z,17.13
2019-01-30T20:54:21.927Z,17.70
2019-01-30T20:56:49.181Z,17.77
2019-01-30T20:59:16.435Z,21.03
2019-01-30T21:01:43.668Z,19.70
2019-01-30T21:04:10.913Z,18.37
2019-01-30T21:06:38.196Z,17.27
2019-01-30T21:09:07.699Z,16.40
2019-01-30T21:11:34.943Z,18.33
2019-01-30T21:14:02.203Z,16.57
2019-01-30T21:16:29.423Z,16.13
2019-01-30T21:18:56.715Z,17.33
2019-01-30T21:21:23.978Z,16.17
2019-01-30T21:23:51.231Z,17.73
2019-01-30T21:26:18.619Z,16.17
2019-01-30T21:28:45.863Z,25.43
2019-01-30T21:31:13.143Z,24.20
2019-01-30T21:33:40.388Z,22.93
2019-01-30T21:36:07.610Z,19.13
2019-01-30T21:38:34.838Z,19.53
2019-01-30T21:41:02.199Z,18.70
2019-01-30T21:43:29.542Z,18.50
2019-01-30T21:45:56.782Z,20.70
2019-01-30T21:48:25.330Z,19.97
2019-01-30T21:50:52.605Z,18.23
2019-01-30T21:53:19.850Z,21.87
2019-01-30T21:55:47.121Z,20.40
2019-01-30T21:58:14.582Z,17.77
2019-01-30T22:00:41.927Z,20.17
2019-01-30T22:03:09.270Z,17.03
2019-01-30T22:05:36.491Z,17.80
2019-01-30T22:08:04.066Z,18.53
2019-01-30T22:10:31.278Z,18.40
2019-01-30T22:12:58.537Z,19.27
2019-01-30T22:15:25.850Z,22.50
2019-01-30T22:17:53.191Z,19.60
2019-01-30T22:20:22.135Z,21.73
2019-01-30T22:22:49.546Z,19.27
2019-01-30T22:25:20.313Z,20.80
2019-01-30T22:27:46.966Z,20.97
2019-01-30T22:30:31.144Z,20.10
2019-01-30T22:32:58.366Z,20.37
2019-01-30T22:35:25.747Z,19.07
2019-01-30T22:37:53.028Z,18.20
2019-01-30T22:40:20.377Z,22.03
2019-01-30T22:42:47.725Z,19.80
2019-01-30T22:45:16.167Z,20.67
2019-01-30T22:47:43.376Z,19.60
2019-01-30T22:50:11.331Z,19.23
2019-01-30T22:52:38.579Z,18.10
2019-01-30T22:55:07.321Z,21.57
2019-01-30T22:57:34.591Z,17.97
2019-01-30T23:00:02.272Z,21.07
2019-01-30T23:02:29.601Z,21.13
2019-01-30T23:05:22.662Z,22.20
2019-01-30T23:08:03.318Z,22.33
2019-01-30T23:11:02.365Z,20.10
2019-01-30T23:13:43.493Z,19.60
2019-01-30T23:17:00.267Z,23.17
2019-01-30T23:19:47.522Z,22.03
2019-01-30T23:22:39.943Z,26.87
2019-01-30T23:25:44.853Z,25.57
2019-01-30T23:28:53.670Z,24.53
2019-01-30T23:31:54.479Z,22.60
2019-01-30T23:34:54.551Z,22.87
2019-01-30T23:38:07.217Z,23.63
2019-01-30T23:40:50.662Z,28.07
2019-01-30T23:43:55.591Z,23.67
2019-01-30T23:46:49.079Z,26.63
2019-01-30T23:49:59.374Z,28.23
2019-01-30T23:53:04.438Z,24.60
2019-01-30T23:55:45.648Z,24.37
2019-01-30T23:58:43.315Z,22.83
